Time;durP1;ratioP1;P1;durP2;ratioP2;P2;SDS_P1;SDS_P2;PMS_P1;PMS_P2;Temp;Humidity;BMP_temperature;BMP_pressure;BME280_temperature;BME280_humidity;BME280_pressure;Samples;Min_cycle;Max_cycle;Signal;HPM_P1;HPM_P2
2023/02/18 00:00:23;;;;;;;4.95;3.90;;;;;;;;;;5017191;28;20465;-82
2023/02/18 00:02:50;;;;;;;5.35;3.40;;;;;;;;;;5016800;28;20139;-82
2023/02/18 00:05:19;;;;;;;4.45;3.60;;;;;;;;;;5016612;28;20605;-82
2023/02/18 00:07:46;;;;;;;5.07;3.75;;;;;;;;;;5015717;28;20497;-83
2023/02/18 00:10:14;;;;;;;5.78;4.13;;;;;;;;;;5015900;28;20452;-83
2023/02/18 00:12:42;;;;;;;3.80;3.50;;;;;;;;;;5016503;28;20060;-83
2023/02/18 00:15:09;;;;;;;7.32;3.75;;;;;;;;;;5016298;28;20054;-82
2023/02/18 00:17:37;;;;;;;6.90;3.40;;;;;;;;;;5016038;28;20050;-83
2023/02/18 00:20:05;;;;;;;5.80;3.70;;;;;;;;;;5015984;28;20049;-83
2023/02/18 00:22:32;;;;;;;4.82;3.78;;;;;;;;;;5015942;28;20132;-83
2023/02/18 00:25:00;;;;;;;4.28;3.83;;;;;;;;;;5015825;28;20515;-82
2023/02/18 00:27:27;;;;;;;5.20;3.72;;;;;;;;;;5016521;28;20435;-82
2023/02/18 00:29:54;;;;;;;6.55;3.70;;;;;;;;;;5016408;28;20516;-83
2023/02/18 00:32:22;;;;;;;5.72;3.03;;;;;;;;;;5015208;28;20049;-82
2023/02/18 00:34:49;;;;;;;5.95;3.20;;;;;;;;;;5033920;28;20053;-83
2023/02/18 00:37:16;;;;;;;4.72;3.80;;;;;;;;;;5033502;28;20064;-83
2023/02/18 00:39:43;;;;;;;5.05;4.63;;;;;;;;;;5016959;28;20057;-83
2023/02/18 00:42:10;;;;;;;4.95;4.15;;;;;;;;;;5033195;28;20050;-83
2023/02/18 00:44:38;;;;;;;4.75;4.00;;;;;;;;;;5015894;28;20042;-82
2023/02/18 00:47:05;;;;;;;4.63;3.75;;;;;;;;;;5016100;28;20049;-83
2023/02/18 00:49:32;;;;;;;4.28;3.88;;;;;;;;;;5033973;28;20046;-83
2023/02/18 00:51:59;;;;;;;4.05;3.72;;;;;;;;;;5016490;28;20092;-83
2023/02/18 00:54:27;;;;;;;3.83;3.40;;;;;;;;;;5016197;28;20042;-83
2023/02/18 00:56:54;;;;;;;4.03;3.20;;;;;;;;;;5016020;28;20053;-83
2023/02/18 00:59:21;;;;;;;4.28;3.50;;;;;;;;;;5033454;28;20494;-83
2023/02/18 01:01:48;;;;;;;4.85;3.53;;;;;;;;;;5033799;28;20053;-83
2023/02/18 01:04:15;;;;;;;3.30;3.05;;;;;;;;;;5033690;28;20430;-83
2023/02/18 01:06:43;;;;;;;4.07;3.17;;;;;;;;;;5016328;28;20045;-83
2023/02/18 01:09:10;;;;;;;3.90;3.38;;;;;;;;;;5033430;28;20045;-83
2023/02/18 01:11:37;;;;;;;4.40;3.22;;;;;;;;;;5033742;28;20482;-83
2023/02/18 01:14:05;;;;;;;3.15;2.90;;;;;;;;;;5015970;28;20057;-84
2023/02/18 01:16:32;;;;;;;3.53;3.15;;;;;;;;;;5016131;28;20057;-83
2023/02/18 01:18:59;;;;;;;4.03;2.85;;;;;;;;;;5017391;28;20042;-83
2023/02/18 01:21:26;;;;;;;5.07;3.55;;;;;;;;;;5019698;28;20050;-84
2023/02/18 01:23:53;;;;;;;4.72;3.22;;;;;;;;;;5019487;28;20045;-83
2023/02/18 01:26:21;;;;;;;3.30;3.00;;;;;;;;;;5038504;28;20053;-84
2023/02/18 01:28:48;;;;;;;3.38;2.63;;;;;;;;;;5038518;28;20049;-84
2023/02/18 01:31:18;;;;;;;3.55;3.25;;;;;;;;;;5059228;28;20048;-84
2023/02/18 01:33:45;;;;;;;4.07;3.30;;;;;;;;;;5037629;28;20077;-83
2023/02/18 01:36:13;;;;;;;4.00;3.10;;;;;;;;;;5019374;28;20080;-84
2023/02/18 01:38:40;;;;;;;3.03;2.80;;;;;;;;;;5019533;28;20527;-83
2023/02/18 01:41:07;;;;;;;3.28;3.00;;;;;;;;;;5019660;28;20095;-84
2023/02/18 01:43:35;;;;;;;3.22;3.03;;;;;;;;;;5037042;28;20049;-84
2023/02/18 01:46:07;;;;;;;2.75;2.65;;;;;;;;;;5036835;28;20509;-84
2023/02/18 01:48:42;;;;;;;3.27;2.50;;;;;;;;;;5036792;28;20468;-84
2023/02/18 01:51:12;;;;;;;2.63;2.40;;;;;;;;;;5018873;28;20091;-84
2023/02/18 01:53:43;;;;;;;4.40;2.30;;;;;;;;;;5020165;28;20037;-84
2023/02/18 01:56:14;;;;;;;3.55;2.33;;;;;;;;;;5019189;28;20417;-84
2023/02/18 01:58:41;;;;;;;3.03;2.83;;;;;;;;;;5037532;28;20528;-84
2023/02/18 02:01:09;;;;;;;3.13;2.88;;;;;;;;;;5037464;28;20055;-83
2023/02/18 02:03:36;;;;;;;2.83;2.63;;;;;;;;;;5036608;28;20050;-84
2023/02/18 02:06:06;;;;;;;3.53;3.00;;;;;;;;;;5035967;28;20049;-84
2023/02/18 02:08:33;;;;;;;2.50;2.30;;;;;;;;;;5036962;28;20045;-83
2023/02/18 02:11:17;;;;;;;2.58;2.38;;;;;;;;;;5036338;28;20053;-84
2023/02/18 02:13:47;;;;;;;2.33;2.15;;;;;;;;;;5019097;28;20060;-84
2023/02/18 02:16:20;;;;;;;2.15;2.03;;;;;;;;;;5018761;28;20049;-84
2023/02/18 02:18:58;;;;;;;2.10;1.98;;;;;;;;;;5036688;28;20053;-84
2023/02/18 02:21:39;;;;;;;2.60;2.40;;;;;;;;;;5036297;28;20045;-84
2023/02/18 02:24:09;;;;;;;4.30;2.50;;;;;;;;;;5036384;28;20060;-84
2023/02/18 02:26:58;;;;;;;3.63;2.17;;;;;;;;;;5036230;28;20084;-84
2023/02/18 02:29:44;;;;;;;2.65;2.45;;;;;;;;;;5035830;28;20079;-84
2023/02/18 02:32:30;;;;;;;3.75;2.33;;;;;;;;;;5018561;28;20050;-83
2023/02/18 02:35:09;;;;;;;2.10;2.00;;;;;;;;;;5035643;28;20049;-85
2023/02/18 02:37:49;;;;;;;3.60;2.58;;;;;;;;;;5018610;28;20060;-84
2023/02/18 02:40:23;;;;;;;2.15;2.05;;;;;;;;;;5018556;28;20516;-84
2023/02/18 02:42:59;;;;;;;1.95;1.77;;;;;;;;;;5019039;28;20050;-84
2023/02/18 02:45:35;;;;;;;2.90;2.28;;;;;;;;;;5035845;28;20061;-84
2023/02/18 02:48:15;;;;;;;2.85;2.10;;;;;;;;;;5018089;28;20054;-84
2023/02/18 02:50:45;;;;;;;2.40;2.20;;;;;;;;;;5018229;28;20414;-84
2023/02/18 02:53:22;;;;;;;2.00;1.90;;;;;;;;;;5034872;28;20049;-84
2023/02/18 02:55:49;;;;;;;1.55;1.42;;;;;;;;;;5035644;28;20049;-84
2023/02/18 02:58:18;;;;;;;2.75;2.00;;;;;;;;;;5017704;28;20424;-84
2023/02/18 03:01:04;;;;;;;1.70;1.60;;;;;;;;;;5017731;28;20049;-84
2023/02/18 03:03:39;;;;;;;2.50;1.70;;;;;;;;;;5018247;28;20053;-84
2023/02/18 03:06:29;;;;;;;2.03;1.83;;;;;;;;;;5035343;28;20048;-84
2023/02/18 03:09:32;;;;;;;2.17;1.67;;;;;;;;;;5022778;28;20049;-83
2023/02/18 03:11:59;;;;;;;2.03;1.90;;;;;;;;;;4920733;29;20082;-84
2023/02/18 03:14:40;;;;;;;1.27;1.27;;;;;;;;;;4999052;28;20064;-84
2023/02/18 03:17:12;;;;;;;1.65;1.55;;;;;;;;;;5044520;28;20474;-84
2023/02/18 03:19:42;;;;;;;1.60;1.50;;;;;;;;;;5055070;28;20057;-84
2023/02/18 03:22:18;;;;;;;2.28;1.60;;;;;;;;;;5045440;28;20132;-84
2023/02/18 03:24:46;;;;;;;1.70;1.60;;;;;;;;;;5017850;28;20103;-84
2023/02/18 03:27:17;;;;;;;3.10;1.88;;;;;;;;;;5017374;28;20059;-84
2023/02/18 03:29:45;;;;;;;1.85;1.30;;;;;;;;;;5035222;28;20057;-84
2023/02/18 03:32:16;;;;;;;1.73;1.40;;;;;;;;;;5034916;28;20073;-84
2023/02/18 03:34:47;;;;;;;1.63;1.52;;;;;;;;;;5017299;28;20115;-84
2023/02/18 03:37:15;;;;;;;1.58;1.48;;;;;;;;;;5034933;28;20060;-84
2023/02/18 03:39:45;;;;;;;1.83;1.27;;;;;;;;;;5034814;28;20049;-84
2023/02/18 03:42:12;;;;;;;1.77;1.60;;;;;;;;;;5016291;28;20060;-84
2023/02/18 03:44:42;;;;;;;2.22;1.20;;;;;;;;;;5034650;28;20048;-84
2023/02/18 03:47:10;;;;;;;1.33;1.23;;;;;;;;;;5017534;28;20045;-84
2023/02/18 03:49:37;;;;;;;1.30;1.20;;;;;;;;;;5034456;28;20524;-84
2023/02/18 03:52:04;;;;;;;3.50;1.30;;;;;;;;;;5017006;28;20128;-84
2023/02/18 03:54:31;;;;;;;1.98;1.50;;;;;;;;;;5017091;28;20064;-84
2023/02/18 03:56:59;;;;;;;2.42;1.80;;;;;;;;;;5034828;28;20152;-83
2023/02/18 03:59:26;;;;;;;2.38;1.70;;;;;;;;;;5017765;28;20051;-84
2023/02/18 04:01:53;;;;;;;3.85;1.63;;;;;;;;;;5034345;28;20072;-84
2023/02/18 04:04:20;;;;;;;2.13;1.80;;;;;;;;;;5016829;28;20493;-84
2023/02/18 04:06:47;;;;;;;2.10;1.42;;;;;;;;;;5017170;28;20456;-84
2023/02/18 04:09:15;;;;;;;2.20;1.67;;;;;;;;;;5017369;28;20059;-84
2023/02/18 04:11:42;;;;;;;2.40;1.67;;;;;;;;;;5034986;28;20045;-84
2023/02/18 04:14:09;;;;;;;2.75;1.65;;;;;;;;;;5016701;28;20058;-85
2023/02/18 04:16:36;;;;;;;1.83;1.30;;;;;;;;;;5034428;28;20405;-84
2023/02/18 04:19:04;;;;;;;2.03;1.23;;;;;;;;;;5017210;28;20049;-84
2023/02/18 04:21:31;;;;;;;2.42;1.52;;;;;;;;;;5033991;28;20055;-84
2023/02/18 04:24:00;;;;;;;1.73;1.63;;;;;;;;;;5016927;28;20049;-84
2023/02/18 04:26:27;;;;;;;1.60;1.50;;;;;;;;;;5017270;28;20052;-84
2023/02/18 04:28:54;;;;;;;1.55;1.45;;;;;;;;;;5017786;28;20053;-84
2023/02/18 04:31:21;;;;;;;1.50;1.40;;;;;;;;;;5017236;28;20041;-84
2023/02/18 04:33:49;;;;;;;1.83;1.73;;;;;;;;;;5016374;28;20100;-85
2023/02/18 04:36:16;;;;;;;1.60;1.50;;;;;;;;;;5033668;28;20048;-84
2023/02/18 04:38:43;;;;;;;3.08;1.83;;;;;;;;;;5016917;28;20053;-84
2023/02/18 04:41:11;;;;;;;1.50;1.40;;;;;;;;;;5034440;28;20045;-84
2023/02/18 04:43:38;;;;;;;1.30;1.30;;;;;;;;;;5016899;28;20128;-84
2023/02/18 04:46:06;;;;;;;1.52;1.42;;;;;;;;;;5016762;28;20045;-84
2023/02/18 04:48:34;;;;;;;2.47;1.30;;;;;;;;;;5016804;28;20057;-84
2023/02/18 04:51:01;;;;;;;1.30;1.20;;;;;;;;;;5034450;28;20049;-84
2023/02/18 04:53:28;;;;;;;1.10;1.10;;;;;;;;;;5036016;28;20425;-84
2023/02/18 04:55:55;;;;;;;1.48;1.35;;;;;;;;;;5020250;28;20049;-84
2023/02/18 04:58:22;;;;;;;1.80;1.20;;;;;;;;;;5020504;28;20053;-84
2023/02/18 05:00:52;;;;;;;1.20;1.20;;;;;;;;;;5020688;28;20054;-84
2023/02/18 05:03:19;;;;;;;1.38;1.27;;;;;;;;;;5037908;28;20060;-84
2023/02/18 05:05:46;;;;;;;1.33;0.82;;;;;;;;;;5040618;28;20045;-85
2023/02/18 05:08:15;;;;;;;2.20;1.13;;;;;;;;;;5058389;28;20098;-84
2023/02/18 05:10:42;;;;;;;1.52;1.10;;;;;;;;;;5058190;28;20092;-84
2023/02/18 05:13:09;;;;;;;2.05;1.20;;;;;;;;;;5020710;28;20049;-84
2023/02/18 05:15:36;;;;;;;1.13;1.02;;;;;;;;;;5038107;28;20055;-84
2023/02/18 05:18:04;;;;;;;1.15;1.13;;;;;;;;;;5037880;28;20157;-84
2023/02/18 05:20:31;;;;;;;1.60;1.33;;;;;;;;;;5020338;28;20049;-84
2023/02/18 05:22:58;;;;;;;1.00;0.90;;;;;;;;;;5038319;28;20499;-84
2023/02/18 05:25:25;;;;;;;1.27;1.15;;;;;;;;;;5019853;28;20045;-84
2023/02/18 05:27:53;;;;;;;0.90;0.90;;;;;;;;;;5037627;28;20076;-84
2023/02/18 05:30:20;;;;;;;0.95;0.80;;;;;;;;;;5019393;28;20531;-84
2023/02/18 05:32:47;;;;;;;2.05;0.90;;;;;;;;;;5037598;28;20081;-84
2023/02/18 05:35:15;;;;;;;1.10;1.10;;;;;;;;;;5037561;28;20521;-83
2023/02/18 05:37:42;;;;;;;1.10;0.98;;;;;;;;;;5037036;28;20076;-84
2023/02/18 05:40:10;;;;;;;0.80;0.73;;;;;;;;;;5019137;28;20053;-84
2023/02/18 05:42:37;;;;;;;0.80;0.80;;;;;;;;;;5036595;28;20458;-84
2023/02/18 05:45:05;;;;;;;1.00;1.00;;;;;;;;;;5019276;28;20053;-84
2023/02/18 05:47:32;;;;;;;1.15;1.15;;;;;;;;;;5019492;28;20095;-84
2023/02/18 05:49:59;;;;;;;1.02;0.85;;;;;;;;;;5037508;28;20305;-84
2023/02/18 05:52:26;;;;;;;0.80;0.80;;;;;;;;;;5037010;28;20137;-84
2023/02/18 05:54:54;;;;;;;1.50;0.82;;;;;;;;;;5036243;28;20045;-84
2023/02/18 05:57:21;;;;;;;0.88;0.88;;;;;;;;;;5037286;28;20140;-84
2023/02/18 05:59:49;;;;;;;0.82;0.82;;;;;;;;;;5037626;28;20105;-84
2023/02/18 06:02:16;;;;;;;1.33;0.80;;;;;;;;;;5020246;28;20050;-84
2023/02/18 06:04:43;;;;;;;0.70;0.70;;;;;;;;;;5019355;28;20107;-84
2023/02/18 06:07:10;;;;;;;2.03;1.00;;;;;;;;;;5017820;28;20055;-84
2023/02/18 06:09:38;;;;;;;0.98;0.98;;;;;;;;;;5036997;28;20077;-84
2023/02/18 06:12:05;;;;;;;1.35;1.20;;;;;;;;;;5037746;28;20057;-85
2023/02/18 06:14:32;;;;;;;0.93;0.70;;;;;;;;;;5038366;28;20132;-85
2023/02/18 06:16:59;;;;;;;1.65;0.98;;;;;;;;;;5038119;28;20056;-84
2023/02/18 06:19:27;;;;;;;1.23;0.98;;;;;;;;;;5037729;28;20049;-84
2023/02/18 06:21:55;;;;;;;0.90;0.90;;;;;;;;;;5037860;28;20057;-84
2023/02/18 06:24:22;;;;;;;1.10;1.00;;;;;;;;;;5037398;28;20091;-83
2023/02/18 06:26:49;;;;;;;2.65;0.90;;;;;;;;;;5038211;28;20046;-84
2023/02/18 06:29:16;;;;;;;0.85;0.80;;;;;;;;;;5020170;28;20048;-84
2023/02/18 06:31:44;;;;;;;0.98;0.98;;;;;;;;;;5019811;28;20060;-84
2023/02/18 06:34:11;;;;;;;0.70;0.70;;;;;;;;;;5019453;28;20046;-84
2023/02/18 06:36:39;;;;;;;0.63;0.60;;;;;;;;;;5020078;28;20401;-85
2023/02/18 06:39:06;;;;;;;0.70;0.70;;;;;;;;;;5019675;28;20458;-84
2023/02/18 06:41:34;;;;;;;1.15;0.70;;;;;;;;;;5019898;28;20047;-85
2023/02/18 06:44:01;;;;;;;0.93;0.65;;;;;;;;;;5019841;28;20060;-84
2023/02/18 06:46:28;;;;;;;0.88;0.60;;;;;;;;;;5020216;28;20069;-84
2023/02/18 06:48:56;;;;;;;0.60;0.40;;;;;;;;;;5020244;28;20486;-84
2023/02/18 06:51:23;;;;;;;1.00;0.90;;;;;;;;;;5019710;28;20057;-84
2023/02/18 06:53:50;;;;;;;0.63;0.60;;;;;;;;;;5038603;28;20048;-84
2023/02/18 06:56:18;;;;;;;1.48;0.50;;;;;;;;;;5033420;28;20081;-84
2023/02/18 06:58:45;;;;;;;0.60;0.60;;;;;;;;;;5060578;28;20045;-85
2023/02/18 07:01:12;;;;;;;2.83;1.52;;;;;;;;;;5051889;28;20045;-84
2023/02/18 07:03:39;;;;;;;1.15;0.68;;;;;;;;;;5038420;28;20041;-84
2023/02/18 07:06:07;;;;;;;0.50;0.50;;;;;;;;;;5038505;28;20128;-85
2023/02/18 07:08:38;;;;;;;0.80;0.40;;;;;;;;;;5056163;28;20053;-84
2023/02/18 07:11:05;;;;;;;0.50;0.50;;;;;;;;;;5056080;28;20056;-83
2023/02/18 07:13:32;;;;;;;0.85;0.40;;;;;;;;;;5055986;28;20057;-84
2023/02/18 07:15:59;;;;;;;0.50;0.50;;;;;;;;;;5055591;28;20055;-84
2023/02/18 07:18:27;;;;;;;0.82;0.60;;;;;;;;;;5038970;28;20052;-83
2023/02/18 07:20:54;;;;;;;0.30;0.30;;;;;;;;;;5037978;28;20520;-85
2023/02/18 07:23:21;;;;;;;0.63;0.40;;;;;;;;;;5038497;28;20056;-83
2023/02/18 07:25:48;;;;;;;0.20;0.20;;;;;;;;;;5038505;28;20076;-85
2023/02/18 07:28:15;;;;;;;0.70;0.30;;;;;;;;;;5038429;28;20523;-84
2023/02/18 07:30:42;;;;;;;0.50;0.50;;;;;;;;;;5056972;28;20045;-84
2023/02/18 07:33:10;;;;;;;0.30;0.30;;;;;;;;;;5038451;28;20059;-85
2023/02/18 07:35:37;;;;;;;0.40;0.40;;;;;;;;;;5038811;28;20045;-84
2023/02/18 07:38:04;;;;;;;0.40;0.40;;;;;;;;;;5038722;28;20056;-83
2023/02/18 07:40:31;;;;;;;0.40;0.40;;;;;;;;;;5038274;28;20053;-84
2023/02/18 07:42:58;;;;;;;0.85;0.50;;;;;;;;;;5054970;28;20061;-83
2023/02/18 07:45:36;;;;;;;1.58;0.35;;;;;;;;;;5055959;28;20490;-84
2023/02/18 07:48:03;;;;;;;4.47;0.55;;;;;;;;;;5022447;28;20139;-84
2023/02/18 07:50:35;;;;;;;3.10;0.77;;;;;;;;;;5038353;28;20045;-83
2023/02/18 07:53:06;;;;;;;1.52;0.40;;;;;;;;;;5037798;28;20048;-83
2023/02/18 07:55:49;;;;;;;0.30;0.30;;;;;;;;;;5055261;28;20049;-83
2023/02/18 07:58:17;;;;;;;0.63;0.22;;;;;;;;;;5037677;28;20140;-84
2023/02/18 08:00:46;;;;;;;0.20;0.20;;;;;;;;;;5038181;28;20048;-83
2023/02/18 08:03:14;;;;;;;0.43;0.20;;;;;;;;;;5054967;28;20481;-84
2023/02/18 08:05:41;;;;;;;0.20;0.20;;;;;;;;;;5037266;28;20128;-83
2023/02/18 08:08:12;;;;;;;0.57;0.57;;;;;;;;;;5055154;28;20052;-84
2023/02/18 08:10:39;;;;;;;0.30;0.30;;;;;;;;;;5055493;28;20124;-83
2023/02/18 08:13:07;;;;;;;0.50;0.50;;;;;;;;;;5037057;28;20056;-84
2023/02/18 08:15:34;;;;;;;0.15;0.13;;;;;;;;;;5054712;28;20406;-84
2023/02/18 08:18:01;;;;;;;0.00;0.00;;;;;;;;;;5055385;28;20052;-84
2023/02/18 08:20:29;;;;;;;0.32;0.20;;;;;;;;;;5037940;28;20501;-84
2023/02/18 08:22:56;;;;;;;0.50;0.50;;;;;;;;;;5055295;28;20079;-84
2023/02/18 08:25:24;;;;;;;2.08;0.47;;;;;;;;;;5037769;28;20128;-83
2023/02/18 08:27:56;;;;;;;0.10;0.10;;;;;;;;;;5041089;28;20059;-84
2023/02/18 08:30:23;;;;;;;0.10;0.10;;;;;;;;;;5062667;28;20071;-84
2023/02/18 08:32:50;;;;;;;0.10;0.10;;;;;;;;;;5044853;28;20095;-82
2023/02/18 08:35:18;;;;;;;0.65;0.20;;;;;;;;;;5044083;28;20136;-83
2023/02/18 08:37:45;;;;;;;0.30;0.30;;;;;;;;;;5043795;28;20052;-84
2023/02/18 08:40:19;;;;;;;;;;;;;;;;;;5045268;28;20147;-85
2023/02/18 08:42:46;;;;;;;0.60;0.13;;;;;;;;;;5062135;28;19931;-84
2023/02/18 08:45:13;;;;;;;0.13;0.13;;;;;;;;;;5044639;28;20044;-84
2023/02/18 08:47:40;;;;;;;2.45;0.40;;;;;;;;;;5080727;28;20067;-84
2023/02/18 08:50:28;;;;;;;0.20;0.10;;;;;;;;;;5068201;28;20511;-84
2023/02/18 08:52:56;;;;;;;0.10;0.10;;;;;;;;;;5044061;28;20441;-84
2023/02/18 08:55:23;;;;;;;0.00;0.00;;;;;;;;;;5062005;28;20044;-84
2023/02/18 08:57:51;;;;;;;0.52;0.10;;;;;;;;;;5061671;28;20052;-84
2023/02/18 09:00:18;;;;;;;0.10;0.10;;;;;;;;;;5043726;28;20048;-83
2023/02/18 09:02:46;;;;;;;0.10;0.10;;;;;;;;;;5043603;28;20055;-84
2023/02/18 09:05:14;;;;;;;0.30;0.10;;;;;;;;;;5043999;28;20056;-84
2023/02/18 09:07:41;;;;;;;1.15;0.10;;;;;;;;;;5043566;28;20044;-84
2023/02/18 09:10:09;;;;;;;0.10;0.10;;;;;;;;;;5043546;28;20496;-84
2023/02/18 09:12:36;;;;;;;0.13;0.10;;;;;;;;;;5043731;28;20098;-84
2023/02/18 09:15:04;;;;;;;0.00;0.00;;;;;;;;;;5043515;28;20539;-84
2023/02/18 09:17:32;;;;;;;0.93;0.20;;;;;;;;;;5044276;28;20052;-84
2023/02/18 09:19:59;;;;;;;0.20;0.20;;;;;;;;;;5061748;28;20108;-84
2023/02/18 09:22:26;;;;;;;0.13;0.10;;;;;;;;;;5061765;28;20413;-84
2023/02/18 09:24:53;;;;;;;0.40;0.40;;;;;;;;;;5050081;28;20056;-84
2023/02/18 09:27:21;;;;;;;0.45;0.43;;;;;;;;;;5041406;28;20099;-83
2023/02/18 09:29:49;;;;;;;1.05;0.50;;;;;;;;;;5023722;28;20064;-85
2023/02/18 09:32:17;;;;;;;1.08;0.75;;;;;;;;;;5023437;28;20244;-84
2023/02/18 09:35:01;;;;;;;0.70;0.70;;;;;;;;;;5026399;28;20057;-84
2023/02/18 09:37:28;;;;;;;2.05;1.20;;;;;;;;;;5024190;28;20414;-84
2023/02/18 09:39:56;;;;;;;0.63;0.63;;;;;;;;;;5038087;28;20053;-84
2023/02/18 09:42:27;;;;;;;2.47;0.70;;;;;;;;;;5037554;28;20060;-84
2023/02/18 09:44:57;;;;;;;1.10;1.10;;;;;;;;;;5037514;28;20470;-84
2023/02/18 09:47:38;;;;;;;0.90;0.90;;;;;;;;;;5038465;28;20088;-85
2023/02/18 09:50:08;;;;;;;1.20;1.20;;;;;;;;;;5020104;28;20053;-84
2023/02/18 09:52:37;;;;;;;1.35;1.25;;;;;;;;;;5020649;28;20042;-84
2023/02/18 09:55:23;;;;;;;1.38;1.25;;;;;;;;;;5020549;28;20050;-85
2023/02/18 09:57:55;;;;;;;4.07;1.13;;;;;;;;;;5037876;28;20483;-84
2023/02/18 10:00:26;;;;;;;1.52;1.30;;;;;;;;;;5020733;28;20057;-84
2023/02/18 10:03:12;;;;;;;1.15;1.15;;;;;;;;;;5020289;28;20086;-84
2023/02/18 10:05:42;;;;;;;1.48;1.38;;;;;;;;;;5037902;28;20045;-84
2023/02/18 10:08:20;;;;;;;2.03;1.60;;;;;;;;;;5020136;28;20056;-85
2023/02/18 10:10:47;;;;;;;1.20;1.20;;;;;;;;;;5037956;28;20085;-83
2023/02/18 10:13:15;;;;;;;1.23;1.23;;;;;;;;;;5037277;28;20050;-83
2023/02/18 10:15:43;;;;;;;1.08;1.08;;;;;;;;;;5037918;28;20069;-85
2023/02/18 10:18:19;;;;;;;1.98;1.30;;;;;;;;;;5037616;28;20049;-85
2023/02/18 10:20:47;;;;;;;1.10;1.10;;;;;;;;;;5019994;28;20144;-85
2023/02/18 10:23:15;;;;;;;1.00;1.00;;;;;;;;;;5038014;28;20049;-84
2023/02/18 10:25:44;;;;;;;1.77;1.20;;;;;;;;;;5020566;28;20137;-84
2023/02/18 10:28:12;;;;;;;1.15;1.15;;;;;;;;;;5020191;28;20045;-85
2023/02/18 10:30:41;;;;;;;1.10;1.10;;;;;;;;;;5037526;28;20112;-85
2023/02/18 10:33:32;;;;;;;1.25;1.15;;;;;;;;;;5037938;28;20049;-84
2023/02/18 10:36:02;;;;;;;2.92;0.90;;;;;;;;;;5042513;28;20038;-85
2023/02/18 10:38:30;;;;;;;2.22;1.17;;;;;;;;;;5057692;28;20037;-85
2023/02/18 10:41:07;;;;;;;2.63;0.98;;;;;;;;;;5036888;28;20072;-85
2023/02/18 10:43:46;;;;;;;2.15;0.88;;;;;;;;;;5019944;28;20092;-83
2023/02/18 10:46:13;;;;;;;1.30;0.90;;;;;;;;;;5036939;28;20060;-85
2023/02/18 10:48:48;;;;;;;1.00;0.88;;;;;;;;;;5018957;28;20136;-84
2023/02/18 10:51:21;;;;;;;0.90;0.90;;;;;;;;;;5018055;28;20593;-86
2023/02/18 10:53:52;;;;;;;0.75;0.75;;;;;;;;;;5019972;28;20132;-83
2023/02/18 10:56:37;;;;;;;1.05;0.95;;;;;;;;;;5036406;28;20041;-85
2023/02/18 10:59:12;;;;;;;1.40;1.05;;;;;;;;;;5036760;28;20048;-85
2023/02/18 11:01:39;;;;;;;1.13;1.02;;;;;;;;;;5019444;28;20052;-84
2023/02/18 11:04:12;;;;;;;1.42;1.20;;;;;;;;;;5019167;28;20248;-84
2023/02/18 11:06:41;;;;;;;1.02;1.02;;;;;;;;;;5019253;28;20079;-85
2023/02/18 11:09:22;;;;;;;2.08;1.50;;;;;;;;;;5037029;28;20080;-84
2023/02/18 11:11:50;;;;;;;3.13;1.48;;;;;;;;;;5019103;28;20067;-85
2023/02/18 11:14:38;;;;;;;3.20;1.80;;;;;;;;;;5036116;28;20089;-85
2023/02/18 11:17:25;;;;;;;2.22;1.80;;;;;;;;;;5019349;28;20065;-87
2023/02/18 11:19:54;;;;;;;2.67;1.27;;;;;;;;;;5019671;28;20053;-85
2023/02/18 11:22:23;;;;;;;1.50;1.40;;;;;;;;;;5035991;28;20103;-84
2023/02/18 11:24:54;;;;;;;2.58;1.42;;;;;;;;;;5018505;28;20052;-85
2023/02/18 11:27:23;;;;;;;1.35;1.20;;;;;;;;;;5018603;28;20056;-85
2023/02/18 11:29:55;;;;;;;0.98;0.98;;;;;;;;;;5019132;28;20053;-84
2023/02/18 11:32:25;;;;;;;2.15;1.27;;;;;;;;;;5036657;28;20113;-85
2023/02/18 11:34:53;;;;;;;3.25;1.20;;;;;;;;;;5019401;28;20049;-85
2023/02/18 11:37:21;;;;;;;1.65;1.13;;;;;;;;;;5019097;28;20053;-85
2023/02/18 11:40:02;;;;;;;5.15;0.90;;;;;;;;;;5020784;28;20486;-84
2023/02/18 11:42:29;;;;;;;0.98;0.98;;;;;;;;;;5036131;28;20051;-85
2023/02/18 11:44:58;;;;;;;2.45;1.02;;;;;;;;;;5035448;28;20175;-85
2023/02/18 11:47:36;;;;;;;3.00;1.23;;;;;;;;;;5019017;28;20053;-84
2023/02/18 11:50:14;;;;;;;1.88;0.80;;;;;;;;;;5035853;28;20049;-84
2023/02/18 11:52:43;;;;;;;1.75;0.68;;;;;;;;;;5018404;28;20077;-85
2023/02/18 11:55:16;;;;;;;0.90;0.80;;;;;;;;;;5018033;28;20049;-84
2023/02/18 11:57:49;;;;;;;0.77;0.50;;;;;;;;;;5018159;28;20136;-84
2023/02/18 12:00:16;;;;;;;1.10;0.50;;;;;;;;;;5035783;28;20053;-85
2023/02/18 12:02:44;;;;;;;0.93;0.65;;;;;;;;;;5017489;28;20046;-84
2023/02/18 12:05:14;;;;;;;2.90;0.70;;;;;;;;;;5035428;28;20490;-85
2023/02/18 12:07:46;;;;;;;2.45;0.85;;;;;;;;;;5015831;28;20509;-86
2023/02/18 12:10:21;;;;;;;17.88;2.08;;;;;;;;;;5017552;28;20054;-85
2023/02/18 12:12:52;;;;;;;1.27;0.50;;;;;;;;;;5035685;28;20072;-84
2023/02/18 12:15:23;;;;;;;7.07;0.70;;;;;;;;;;5017232;28;20067;-85
2023/02/18 12:18:01;;;;;;;0.40;0.40;;;;;;;;;;5034460;28;20041;-85
2023/02/18 12:20:42;;;;;;;1.08;0.70;;;;;;;;;;5017973;28;20084;-84
2023/02/18 12:23:27;;;;;;;1.50;0.30;;;;;;;;;;5018327;28;20628;-86
2023/02/18 12:26:12;;;;;;;1.58;0.60;;;;;;;;;;5038755;28;20040;-84
2023/02/18 12:28:48;;;;;;;7.45;0.80;;;;;;;;;;5054025;28;20035;-84
2023/02/18 12:31:24;;;;;;;0.55;0.55;;;;;;;;;;5033226;28;20065;-83
2023/02/18 12:34:05;;;;;;;2.58;0.63;;;;;;;;;;5017622;28;20478;-84
2023/02/18 12:36:44;;;;;;;0.47;0.38;;;;;;;;;;5034912;28;20137;-84
2023/02/18 12:39:18;;;;;;;1.95;0.60;;;;;;;;;;5017589;28;20060;-84
2023/02/18 12:42:09;;;;;;;0.93;0.50;;;;;;;;;;5034331;28;20072;-84
2023/02/18 12:44:44;;;;;;;3.85;0.40;;;;;;;;;;5016910;28;20081;-85
2023/02/18 12:47:25;;;;;;;5.93;0.50;;;;;;;;;;5034240;28;20045;-85
2023/02/18 12:49:59;;;;;;;1.15;0.40;;;;;;;;;;5017134;28;20069;-83
2023/02/18 12:52:29;;;;;;;0.20;0.20;;;;;;;;;;5016565;28;20079;-84
2023/02/18 12:55:20;;;;;;;2.17;0.40;;;;;;;;;;5016720;28;20053;-84
2023/02/18 12:57:53;;;;;;;1.52;0.52;;;;;;;;;;5004550;28;20062;-84
2023/02/18 13:00:32;;;;;;;0.22;0.22;;;;;;;;;;5016445;28;20512;-84
2023/02/18 13:03:13;;;;;;;0.55;0.40;;;;;;;;;;5017136;28;20050;-84
2023/02/18 13:05:49;;;;;;;1.65;0.45;;;;;;;;;;5033992;28;20045;-85
2023/02/18 13:08:23;;;;;;;0.40;0.40;;;;;;;;;;5034244;28;20050;-85
2023/02/18 13:10:54;;;;;;;0.38;0.38;;;;;;;;;;5016189;28;20072;-84
2023/02/18 13:13:26;;;;;;;5.15;0.50;;;;;;;;;;5016910;28;20072;-84
2023/02/18 13:15:59;;;;;;;0.40;0.40;;;;;;;;;;5020371;28;20046;-84
2023/02/18 13:18:40;;;;;;;0.52;0.50;;;;;;;;;;5020462;28;20053;-84
2023/02/18 13:21:10;;;;;;;0.40;0.40;;;;;;;;;;5020617;28;20049;-85
2023/02/18 13:23:39;;;;;;;0.60;0.40;;;;;;;;;;5020264;28;20053;-85
2023/02/18 13:26:09;;;;;;;0.63;0.30;;;;;;;;;;5037811;28;20144;-87
2023/02/18 13:28:45;;;;;;;0.68;0.30;;;;;;;;;;5020768;28;20056;-86
2023/02/18 13:31:19;;;;;;;0.60;0.47;;;;;;;;;;5019998;28;20053;-84
2023/02/18 13:33:50;;;;;;;0.63;0.50;;;;;;;;;;5037667;28;20112;-87
2023/02/18 13:36:36;;;;;;;0.95;0.30;;;;;;;;;;5037503;28;20045;-85
2023/02/18 13:39:18;;;;;;;0.30;0.30;;;;;;;;;;5019703;28;20053;-86
2023/02/18 13:41:50;;;;;;;1.95;0.30;;;;;;;;;;5038083;28;20080;-83
2023/02/18 13:44:20;;;;;;;1.55;0.32;;;;;;;;;;5037519;28;20071;-85
2023/02/18 13:46:53;;;;;;;0.73;0.45;;;;;;;;;;5020662;28;20056;-84
2023/02/18 13:49:24;;;;;;;1.95;0.35;;;;;;;;;;5019545;28;20046;-84
2023/02/18 13:51:52;;;;;;;4.18;0.50;;;;;;;;;;5020514;28;20049;-85
2023/02/18 13:54:29;;;;;;;1.95;0.68;;;;;;;;;;5036901;28;20051;-84
2023/02/18 13:57:15;;;;;;;1.38;0.35;;;;;;;;;;5037776;28;20053;-86
2023/02/18 13:59:52;;;;;;;0.40;0.40;;;;;;;;;;5019684;28;20132;-87
2023/02/18 14:02:19;;;;;;;0.30;0.30;;;;;;;;;;5016643;28;20080;-83
2023/02/18 14:04:47;;;;;;;1.80;0.30;;;;;;;;;;5019866;28;20506;-86
2023/02/18 14:07:30;;;;;;;0.68;0.40;;;;;;;;;;5037850;28;20057;-84
2023/02/18 14:09:58;;;;;;;0.82;0.32;;;;;;;;;;5037510;28;20072;-85
2023/02/18 14:12:44;;;;;;;0.43;0.43;;;;;;;;;;5020431;28;20124;-84
2023/02/18 14:15:17;;;;;;;2.67;0.40;;;;;;;;;;5019779;28;20099;-85
2023/02/18 14:18:04;;;;;;;0.52;0.38;;;;;;;;;;5020111;28;20049;-84
2023/02/18 14:20:37;;;;;;;0.60;0.40;;;;;;;;;;5056847;28;20032;-83
2023/02/18 14:23:19;;;;;;;0.30;0.30;;;;;;;;;;5059266;28;20108;-84
2023/02/18 14:25:49;;;;;;;0.80;0.47;;;;;;;;;;5019512;28;20059;-84
2023/02/18 14:28:35;;;;;;;3.03;0.70;;;;;;;;;;5037296;28;20069;-85
2023/02/18 14:31:03;;;;;;;0.98;0.70;;;;;;;;;;5019403;28;20049;-85
2023/02/18 14:33:31;;;;;;;4.47;1.00;;;;;;;;;;5019391;28;20112;-84
2023/02/18 14:36:17;;;;;;;3.30;0.55;;;;;;;;;;5036370;28;20470;-84
2023/02/18 14:38:59;;;;;;;1.20;0.45;;;;;;;;;;5037193;28;20088;-84
2023/02/18 14:41:44;;;;;;;1.65;0.20;;;;;;;;;;5019448;28;20056;-85
2023/02/18 14:44:33;;;;;;;0.20;0.20;;;;;;;;;;5036915;28;20049;-84
2023/02/18 14:47:22;;;;;;;4.25;0.50;;;;;;;;;;5019274;28;20056;-84
2023/02/18 14:49:51;;;;;;;0.35;0.20;;;;;;;;;;5019304;28;20045;-84
2023/02/18 14:52:23;;;;;;;0.28;0.10;;;;;;;;;;5036906;28;20056;-83
2023/02/18 14:54:50;;;;;;;0.63;0.30;;;;;;;;;;5019995;28;20045;-84
2023/02/18 14:57:20;;;;;;;0.85;0.45;;;;;;;;;;5018654;28;20088;-84
2023/02/18 14:59:48;;;;;;;1.55;0.17;;;;;;;;;;5017502;28;20061;-84
2023/02/18 15:02:23;;;;;;;0.43;0.22;;;;;;;;;;5018425;28;20057;-84
2023/02/18 15:04:51;;;;;;;0.38;0.38;;;;;;;;;;5036047;28;20049;-84